• Join FlightAware (Why Join?)
  • Login
  • US Flag 
12:52PM EDT


 

Airport Tracker/Info


-or-


 

Live Flight TrackerFlight Track Log ✈ SWA607 ✈ 25-Aug-2013 ✈ KPHX - KMDW

Flight Track Log - Related Links

Times and Time Zones

All times are in EDT time to prevent confusion due to time zone crossing. See the SWA607 flight status page for this flight to view local times or setup timezone preferences in your user account.

Time Position Orientation Groundspeed Altitude Reporting Facility
EDT Latitude Longitude Course Direction KTS MPH feet Rate Location/Type
04:00PM 33.4333 -112.1000 270° West 218 251 3,700  Level Phoenix TRACON
04:01PM 33.4314 -112.1414 267° West 220 253 5,500 2,820 Climbing Albuquerque Center
04:02PM 33.4722 -112.1961 312° West 263 303 8,600 2,340 Climbing Albuquerque Center
04:03PM 33.5100 -112.1228 58° Northeast 282 325 10,400 1,980 Climbing Albuquerque Center
04:04PM 33.5336 -112.0128 76° East 345 397 12,700 2,640 Climbing Albuquerque Center
04:05PM 33.5631 -111.8722 76° East 365 420 15,900 2,640 Climbing Albuquerque Center
04:06PM 33.5883 -111.7503 76° East 378 435 18,200 2,160 Climbing Albuquerque Center
04:07PM 33.6150 -111.6231 76° East 394 453 20,400 2,040 Climbing Albuquerque Center
04:08PM 33.6422 -111.4908 76° East 411 473 22,500 1,800 Climbing Albuquerque Center
04:09PM 33.6703 -111.3550 76° East 422 486 24,200 1,800 Climbing Albuquerque Center
04:10PM 33.7164 -111.1892 71° East 441 507 26,300 1,680 Climbing Albuquerque Center
04:11PM 33.7781 -111.0558 61° Northeast 458 527 27,700 1,260 Climbing Albuquerque Center
04:12PM 33.8408 -110.9172 61° Northeast 468 539 29,000 1,260 Climbing Albuquerque Center
04:13PM 33.9033 -110.7764 62° Northeast 476 548 30,300 1,320 Climbing Albuquerque Center
04:14PM 33.9667 -110.6347 62° Northeast 480 552 31,800 1,440 Climbing Albuquerque Center
04:15PM 34.0358 -110.4772 62° Northeast 483 556 33,300 1,260 Climbing Albuquerque Center
04:16PM 34.1008 -110.3319 62° Northeast 487 560 34,500 1,020 Climbing Albuquerque Center
04:17PM 34.1644 -110.1869 62° Northeast 488 562 35,500 960 Climbing Albuquerque Center
04:18PM 34.2342 -110.0289 62° Northeast 493 567 36,600 720 Climbing Albuquerque Center
04:19PM 34.3064 -109.8628 62° Northeast 497 572 37,000 180 Climbing Albuquerque Center
04:20PM 34.3669 -109.7211 63° Northeast 498 573 37,000  Level Albuquerque Center
04:21PM 34.4383 -109.5575 62° Northeast 494 568 37,000  Level Albuquerque Center
04:22PM 34.4981 -109.4167 63° Northeast 493 567 37,000  Level Albuquerque Center
04:23PM 34.5575 -109.2758 63° Northeast 490 564 37,000  Level Albuquerque Center
04:24PM 34.6272 -109.1119 63° Northeast 491 565 37,000  Level Albuquerque Center
04:26PM 34.6861 -108.9739 63° Northeast 487 560 37,000  Level Albuquerque Center
04:27PM 34.7547 -108.8144 62° Northeast 482 555 37,000  Level Albuquerque Center
04:28PM 34.8128 -108.6772 63° Northeast 479 551 37,000  Level Albuquerque Center
04:29PM 34.8789 -108.5183 63° Northeast 475 547 37,000  Level Albuquerque Center
04:30PM 34.9364 -108.3814 63° Northeast 474 545 37,100 480 Climbing Albuquerque Center
04:31PM 35.0031 -108.2211 63° Northeast 475 547 38,000 420 Climbing Albuquerque Center
04:32PM 35.0542 -108.0989 63° Northeast 477 549 38,000  Level Albuquerque Center
04:33PM 35.1278 -107.9217 63° Northeast 477 549 38,000  Level Albuquerque Center
04:34PM 35.1844 -107.7828 63° Northeast 478 550 38,000  Level Albuquerque Center
04:35PM 35.2497 -107.6222 63° Northeast 476 548 38,000  Level Albuquerque Center
04:36PM 35.3069 -107.4831 63° Northeast 478 550 38,000  Level Albuquerque Center
04:37PM 35.3617 -107.3436 64° Northeast 476 548 38,000  Level Albuquerque Center
04:38PM 35.4300 -107.1778 63° Northeast 472 543 38,000  Level Albuquerque Center
04:39PM 35.4856 -107.0319 65° Northeast 472 543 38,000  Level Albuquerque Center
04:40PM 35.5439 -106.8875 64° Northeast 471 542 38,000  Level Albuquerque Center
04:41PM 35.6053 -106.7314 64° Northeast 471 542 38,000  Level Albuquerque Center
04:42PM 35.6639 -106.5853 64° Northeast 469 540 38,000  Level Albuquerque Center
04:43PM 35.7194 -106.4408 65° Northeast 475 547 38,000  Level Albuquerque Center
04:44PM 35.7800 -106.2844 64° Northeast 471 542 38,000  Level Albuquerque Center
04:45PM 35.8378 -106.1528 62° Northeast 469 540 38,000  Level Albuquerque Center
04:46PM 35.8933 -106.0067 65° Northeast 471 542 38,000  Level Albuquerque Center
04:47PM 35.9478 -105.8581 66° East 471 542 38,000  Level Albuquerque Center
04:48PM 36.0036 -105.7119 65° Northeast 471 542 38,000 180 Level Albuquerque Center
04:49PM 36.0592 -105.5656 65° Northeast 470 541 38,400 480 Climbing Albuquerque Center
04:50PM 36.1239 -105.3969 65° Northeast 469 540 39,000 240 Climbing Albuquerque Center
04:51PM 36.1808 -105.2469 65° Northeast 473 544 39,000  Level Albuquerque Center
04:52PM 36.2350 -105.1008 65° Northeast 466 536 39,000  Level Albuquerque Center
04:53PM 36.2900 -104.9561 65° Northeast 461 531 39,000  Level Albuquerque Center
04:54PM 36.3447 -104.8092 65° Northeast 463 533 39,000  Level Albuquerque Center
04:55PM 36.3986 -104.6647 65° Northeast 460 529 39,000  Level Albuquerque Center
04:56PM 36.4519 -104.5197 65° Northeast 457 526 39,000  Level Albuquerque Center
04:57PM 36.5058 -104.3750 65° Northeast 457 526 39,000  Level Albuquerque Center
04:58PM 36.5664 -104.2078 66° East 452 520 39,000  Level Albuquerque Center
04:59PM 36.6197 -104.0664 65° Northeast 449 517 39,000  Level Albuquerque Center
05:00PM 36.6661 -103.9392 66° East 445 512 39,000  Level Albuquerque Center
05:02PM 36.7222 -103.7825 66° East 444 511 39,000  Level Albuquerque Center
05:03PM 36.7700 -103.6503 66° East 441 507 39,000  Level Albuquerque Center
05:04PM 36.8247 -103.4961 66° East 439 505 39,000  Level Albuquerque Center
05:05PM 36.8722 -103.3647 66° East 437 503 39,000  Level Albuquerque Center
05:06PM 36.9264 -103.2103 66° East 436 502 39,000  Level Albuquerque Center
05:07PM 36.9725 -103.0783 66° East 435 501 39,000  Level Albuquerque Center
05:08PM 37.0269 -102.9228 66° East 437 503 39,000  Level Albuquerque Center
05:09PM 37.0753 -102.7892 66° East 440 506 39,000  Level Albuquerque Center
05:10PM 37.1228 -102.6536 66° East 443 510 39,000  Level Albuquerque Center
05:11PM 37.1775 -102.4969 66° East 441 507 39,000  Level Albuquerque Center
05:12PM 37.2239 -102.3606 67° East 444 511 39,000  Level Albuquerque Center
05:13PM 37.2783 -102.2014 67° East 444 511 39,000  Level Albuquerque Center
05:14PM 37.3258 -102.0619 67° East 442 509 39,000  Level Albuquerque Center
05:15PM 37.3711 -101.9247 67° East 444 511 39,000  Level Albuquerque Center
05:16PM 37.4325 -101.7419 67° East 444 511 39,000  Level Kansas City Center
05:17PM 37.4858 -101.5842 67° East 440 506 39,000  Level Kansas City Center
05:18PM 37.5303 -101.4497 67° East 437 503 39,000  Level Kansas City Center
05:19PM 37.5825 -101.2950 67° East 431 496 39,000  Level Kansas City Center
05:20PM 37.6258 -101.1633 67° East 427 491 39,000  Level Kansas City Center
05:21PM 37.6761 -101.0133 67° East 423 487 39,000  Level Kansas City Center
05:22PM 37.7222 -100.8700 68° East 440 506 39,000  Level Kansas City Center
05:23PM 37.7700 -100.7300 67° East 437 503 39,000  Level Kansas City Center
05:24PM 37.8175 -100.5786 68° East 424 488 39,000  Level Kansas City Center
05:25PM 37.8603 -100.4450 68° East 425 489 39,000  Level Kansas City Center
05:27PM 37.9033 -100.3106 68° East 429 494 39,000  Level Kansas City Center
05:28PM 37.9528 -100.1544 68° East 428 493 39,000  Level Kansas City Center
05:29PM 37.9961 -100.0183 68° East 433 498 39,000  Level Kansas City Center
05:30PM 38.0456 -99.8608 68° East 431 496 39,000  Level Kansas City Center
05:31PM 38.0878 -99.7269 68° East 429 494 39,000  Level Kansas City Center
05:32PM 38.1367 -99.5686 69° East 430 495 39,000  Level Kansas City Center
05:33PM 38.1753 -99.4467 68° East 430 495 39,000  Level Kansas City Center
05:34PM 38.2283 -99.2778 68° East 428 493 39,000  Level Kansas City Center
05:35PM 38.2719 -99.1356 69° East 430 495 39,000  Level Kansas City Center
05:36PM 38.3150 -98.9933 69° East 430 495 39,000  Level Kansas City Center
05:37PM 38.3606 -98.8497 68° East 434 499 39,000  Level Kansas City Center
05:38PM 38.4056 -98.7044 68° East 438 504 39,000  Level Kansas City Center
05:39PM 38.4494 -98.5583 69° East 438 504 39,000  Level Kansas City Center
05:40PM 38.4925 -98.4131 69° East 437 503 39,000  Level Kansas City Center
05:41PM 38.5456 -98.2383 69° East 437 503 39,000  Level Kansas City Center
05:42PM 38.5892 -98.0919 69° East 438 504 39,000  Level Kansas City Center
05:43PM 38.6319 -97.9458 69° East 437 503 39,000  Level Kansas City Center
05:44PM 38.6744 -97.7986 70° East 438 504 39,000  Level Kansas City Center
05:45PM 38.7197 -97.6494 69° East 438 504 39,000  Level Kansas City Center
05:46PM 38.7683 -97.4789 70° East 440 506 39,000  Level Kansas City Center
05:47PM 38.8033 -97.3561 70° East 442 509 39,000  Level Kansas City Center
05:48PM 38.8550 -97.1764 70° East 446 513 39,000  Level Kansas City Center
05:49PM 38.8969 -97.0264 70° East 446 513 39,000  Level Kansas City Center
05:50PM 38.9394 -96.8753 70° East 448 516 39,000  Level Kansas City Center
05:51PM 38.9861 -96.7253 68° East 453 521 39,000  Level Kansas City Center
05:52PM 39.0269 -96.5731 71° East 454 522 39,000  Level Kansas City Center
05:53PM 39.0736 -96.3989 71° East 459 528 39,000  Level Kansas City Center
05:54PM 39.1139 -96.2508 71° East 458 527 39,000  Level Kansas City Center
05:55PM 39.1619 -96.0772 70° East 460 529 39,000  Level Kansas City Center
05:56PM 39.2028 -95.9269 71° East 462 532 39,000  Level Kansas City Center
05:58PM 39.2343 -95.7796 71° East  Level FlightAware Approximate
05:58PM 39.2511 -95.7533 71° East 461 531 39,000  Level Kansas City Center
05:59PM 39.2919 -95.6022 71° East 462 532 39,000  Level Kansas City Center
06:00PM 39.3375 -95.4283 71° East 464 534 39,000  Level Kansas City Center
06:01PM 39.3822 -95.2603 71° East 463 533 39,000  Level Kansas City Center
06:02PM 39.4244 -95.1056 70° East 459 528 39,000  Level Kansas City Center
06:03PM 39.4661 -94.9458 71° East 457 526 39,000  Level Kansas City Center
06:04PM 39.5056 -94.7972 71° East 456 525 39,000  Level Kansas City Center
06:05PM 39.5506 -94.6217 72° East 458 527 39,000  Level Kansas City Center
06:06PM 39.5883 -94.4728 72° East 455 524 39,000  Level Kansas City Center
06:07PM 39.6328 -94.2989 72° East 454 522 39,000  Level Kansas City Center
06:08PM 39.6711 -94.1492 72° East 456 525 39,000  Level Kansas City Center
06:09PM 39.7086 -94.0000 72° East 455 524 39,000  Level Kansas City Center
06:10PM 39.7519 -93.8250 72° East 456 525 39,000  Level Kansas City Center
06:11PM 39.7900 -93.6744 72° East 458 527 39,000  Level Kansas City Center
06:12PM 39.8283 -93.5178 72° East 459 528 39,000  Level Kansas City Center
06:13PM 39.8750 -93.3314 72° East 457 526 39,000  Level Kansas City Center
06:14PM 39.9136 -93.1761 72° East 456 525 39,000  Level Kansas City Center
06:15PM 39.9500 -93.0203 73° East 455 524 39,000  Level Kansas City Center
06:16PM 39.9878 -92.8639 72° East 457 526 39,000  Level Kansas City Center
06:17PM 40.0233 -92.7097 73° East 454 522 39,000  Level Kansas City Center
06:18PM 40.0689 -92.5164 73° East 457 526 39,000 -480 Level Kansas City Center
06:19PM 40.1058 -92.3647 72° East 458 527 38,100 -900 Descending Kansas City Center
06:20PM 40.1433 -92.2125 72° East 461 531 37,200 -1,020 Descending Kansas City Center
06:21PM 40.1864 -92.0250 73° East 458 527 36,100 -1,080 Descending Kansas City Center
06:22PM 40.2239 -91.8644 73° East 464 534 35,100 -1,020 Descending Kansas City Center
06:23PM 40.2597 -91.7044 74° East 465 535 34,100 -960 Descending Kansas City Center
06:24PM 40.2964 -91.5433 73° East 466 536 33,200 -900 Descending Kansas City Center
06:25PM 40.3325 -91.3803 74° East 468 539 32,300 -1,020 Descending Kansas City Center
06:26PM 40.3750 -91.1939 73° East 470 541 31,200 -660 Descending Kansas City Center
06:27PM 40.4117 -91.0278 74° East 473 544 31,000 -120 Descending Kansas City Center
06:29PM 40.4483 -90.8611 74° East 475 547 31,000  Level Kansas City Center
06:30PM 40.4867 -90.6925 73° East 479 551 31,000  Level Kansas City Center
06:31PM 40.5300 -90.4917 74° East 478 550 31,000  Level Kansas City Center
06:32PM 40.5672 -90.3244 74° East 477 549 31,000 -900 Level Kansas City Center
06:33PM 40.6033 -90.1550 74° East 479 551 29,200 -2,040 Descending Kansas City Center
06:34PM 40.6381 -89.9914 74° East 475 547 26,800 -2,280 Descending Kansas City Center
06:35PM 40.6700 -89.8353 75° East 459 528 24,500 -1,740 Descending Kansas City Center
06:36PM 40.7222 -89.6908 64° Northeast 454 522 23,200 -1,500 Descending Kansas City Center
06:37PM 40.7906 -89.5553 56° Northeast 411 473 21,500 -1,380 Descending Kansas City Center
06:38PM 40.8906 -89.3975 50° Northeast 409 471 20,100 -1,020 Descending Chicago Center
06:39PM 40.9611 -89.2831 51° Northeast 404 465 19,200 -1,440 Descending Chicago Center
06:40PM 41.0339 -89.1644 51° Northeast 397 457 17,200 -2,160 Descending Chicago Center
06:41PM 41.1014 -89.0558 50° Northeast 388 447 14,800 -2,280 Descending Chicago Center
06:42PM 41.1669 -88.9486 51° Northeast 379 436 12,500 -2,040 Descending Chicago Center
06:43PM 41.2303 -88.8444 51° Northeast 369 425 10,600 -1,260 Descending Chicago Center
06:44PM 41.2958 -88.7347 51° Northeast 317 365 9,900 -960 Descending Chicago Center
06:45PM 41.3322 -88.6419 62° Northeast 299 344 8,700 -1,080 Descending Chicago Center
06:46PM 41.3606 -88.5389 70° East 299 344 7,700 -1,020 Descending Chicago Center
06:47PM 41.3886 -88.4378 70° East 295 339 6,700 -840 Descending Chicago Center
06:48PM 41.4172 -88.3397 69° East 289 333 6,000 -360 Descending Chicago Center
06:49PM 41.4519 -88.2192 69° East 289 333 6,000  Level Chicago Center
06:51PM 41.4806 -88.1183 69° East 289 333 6,000  Level Chicago Center
06:52PM 41.5119 -88.0175 67° East 292 336 6,000 -540 Level Chicago Center
06:53PM 41.5408 -87.9175 69° East 290 334 5,000 -540 Descending Chicago Center
06:54PM 41.5775 -87.8267 62° Northeast 293 337 4,900 -840 Descending Chicago Center
06:55PM 41.6389 -87.7625 38° Northeast 286 329 3,300 -1,260 Descending Chicago Center
06:56PM 41.7031 -87.7039 34° Northeast 284 327 2,400 -420 Descending Chicago Center
06:57PM 41.7694 -87.6572 28° Northeast 243 280 2,500 -300 Climbing Chicago Center
06:58PM 41.8069 -87.6814 334° Northwest 193 222 1,900 -780 Descending Chicago Center
06:59PM 41.8069 -87.7250 270° West 154 177 1,000 -900 Descending Chicago Center